createdAt,value
2023-05-04T00:00:13.866Z,0.00
2023-05-04T00:01:13.355Z,0.00
2023-05-04T00:02:13.644Z,0.00
2023-05-04T00:03:13.817Z,0.00
2023-05-04T00:04:13.453Z,0.00
2023-05-04T00:05:13.586Z,0.00
2023-05-04T00:06:14.136Z,0.00
2023-05-04T00:07:13.167Z,0.00
2023-05-04T00:08:13.043Z,0.00
2023-05-04T00:09:13.366Z,0.00
2023-05-04T00:10:13.325Z,0.00
2023-05-04T00:11:13.353Z,0.00
2023-05-04T00:12:13.372Z,0.00
2023-05-04T00:13:13.517Z,0.00
2023-05-04T00:14:14.090Z,0.00
2023-05-04T00:15:13.946Z,0.00
2023-05-04T00:16:13.090Z,0.00
2023-05-04T00:17:13.155Z,0.00
2023-05-04T00:18:13.260Z,0.00
2023-05-04T00:19:13.335Z,0.00
2023-05-04T00:20:13.248Z,0.00
2023-05-04T00:21:13.320Z,0.00
2023-05-04T00:22:13.758Z,0.00
2023-05-04T00:23:13.990Z,0.00
2023-05-04T00:24:13.115Z,0.00
2023-05-04T00:25:13.206Z,0.00
2023-05-04T00:26:13.415Z,0.00
2023-05-04T00:27:13.470Z,0.00
2023-05-04T00:28:13.776Z,0.00
2023-05-04T00:29:13.710Z,0.00
2023-05-04T00:30:13.862Z,0.00
2023-05-04T00:31:13.912Z,0.00
2023-05-04T00:32:12.948Z,0.00
2023-05-04T00:33:13.408Z,0.00
2023-05-04T00:34:13.791Z,0.00
2023-05-04T00:35:13.898Z,0.00
2023-05-04T00:36:13.458Z,0.00
2023-05-04T00:37:13.503Z,0.00
2023-05-04T00:38:13.406Z,0.00
2023-05-04T00:39:13.940Z,0.00
2023-05-04T00:40:13.230Z,0.00
2023-05-04T00:41:13.247Z,0.00
2023-05-04T00:42:13.225Z,0.00
2023-05-04T00:43:13.537Z,0.00
2023-05-04T00:44:13.653Z,0.00
2023-05-04T00:45:13.610Z,0.00
2023-05-04T00:46:13.680Z,0.00
2023-05-04T00:47:14.422Z,0.00
2023-05-04T00:48:13.569Z,0.00
2023-05-04T00:49:13.605Z,0.00
2023-05-04T00:50:13.207Z,0.00
2023-05-04T00:51:13.650Z,0.00
2023-05-04T00:52:13.526Z,0.00
2023-05-04T00:53:13.584Z,0.00
2023-05-04T00:54:13.899Z,0.00
2023-05-04T00:55:12.851Z,0.00
2023-05-04T00:56:13.951Z,0.00
2023-05-04T00:57:13.253Z,0.00
2023-05-04T00:58:13.289Z,0.00
2023-05-04T00:59:13.146Z,0.00
2023-05-04T01:00:13.276Z,0.00
2023-05-04T01:01:13.838Z,0.00
2023-05-04T01:02:13.754Z,0.00
2023-05-04T01:03:13.971Z,0.00
2023-05-04T01:04:12.894Z,0.00
2023-05-04T01:05:13.160Z,0.00
2023-05-04T01:06:13.046Z,0.00
2023-05-04T01:07:13.495Z,0.00
2023-05-04T01:08:13.375Z,0.00
2023-05-04T01:09:13.270Z,0.00
2023-05-04T01:10:13.587Z,0.00
2023-05-04T01:11:13.924Z,0.00
2023-05-04T01:12:13.001Z,0.00
2023-05-04T01:13:13.308Z,0.00
2023-05-04T01:14:13.296Z,0.00
2023-05-04T01:15:13.600Z,0.00
2023-05-04T01:16:13.793Z,0.00
2023-05-04T01:17:13.883Z,0.00
2023-05-04T01:18:13.059Z,0.00
2023-05-04T01:19:13.728Z,0.00
2023-05-04T01:20:13.753Z,0.00
2023-05-04T01:21:13.835Z,0.00
2023-05-04T01:22:13.069Z,0.00
2023-05-04T01:23:13.650Z,0.00
2023-05-04T01:24:13.716Z,0.00
2023-05-04T01:25:13.819Z,0.00
2023-05-04T01:26:13.765Z,0.00
2023-05-04T01:27:13.937Z,0.00
2023-05-04T01:28:12.927Z,0.00
2023-05-04T01:29:13.714Z,0.00
2023-05-04T01:30:13.944Z,0.00
2023-05-04T01:31:12.944Z,0.00
2023-05-04T01:32:13.049Z,0.00
2023-05-04T01:33:13.549Z,0.00
2023-05-04T01:34:13.643Z,0.00
2023-05-04T01:35:13.768Z,0.00
2023-05-04T01:36:13.833Z,0.00
2023-05-04T01:37:13.461Z,0.00
2023-05-04T01:38:13.371Z,0.00
2023-05-04T01:39:13.409Z,0.00
2023-05-04T01:40:13.228Z,0.00
2023-05-04T01:41:14.129Z,0.00
2023-05-04T01:42:13.325Z,0.00
2023-05-04T01:43:13.549Z,0.00
2023-05-04T01:44:13.526Z,0.00
2023-05-04T01:45:13.590Z,0.00
2023-05-04T01:46:13.890Z,0.00
2023-05-04T01:47:13.446Z,0.00
2023-05-04T01:48:13.697Z,0.00
2023-05-04T01:49:13.698Z,0.00
2023-05-04T01:50:13.603Z,0.00
2023-05-04T01:51:13.995Z,0.00
2023-05-04T01:52:13.356Z,0.00
2023-05-04T01:53:13.871Z,0.00
2023-05-04T01:54:13.092Z,0.00
2023-05-04T01:55:13.374Z,0.00
2023-05-04T01:56:13.421Z,0.00
2023-05-04T01:57:13.615Z,0.00
2023-05-04T01:58:14.203Z,0.00
2023-05-04T01:59:13.240Z,0.00
2023-05-04T02:00:13.611Z,0.00
2023-05-04T02:01:13.032Z,0.00
2023-05-04T02:02:13.349Z,0.00
2023-05-04T02:03:13.371Z,0.00
2023-05-04T02:04:13.493Z,0.00
2023-05-04T02:05:15.134Z,0.00
2023-05-04T02:06:13.165Z,0.00
2023-05-04T02:07:13.452Z,0.00
2023-05-04T02:08:13.692Z,0.00
2023-05-04T02:09:13.332Z,0.00
2023-05-04T02:10:13.446Z,0.00
2023-05-04T02:11:13.775Z,0.00
2023-05-04T02:12:13.519Z,0.00
2023-05-04T02:13:13.380Z,0.00
2023-05-04T02:14:13.457Z,0.00
2023-05-04T02:15:13.838Z,0.00
2023-05-04T02:16:13.286Z,0.00
2023-05-04T02:17:13.703Z,0.00
2023-05-04T02:18:13.670Z,0.00
2023-05-04T02:19:13.243Z,0.00
2023-05-04T02:20:13.949Z,0.00
2023-05-04T02:21:13.049Z,0.00
2023-05-04T02:22:13.337Z,0.00
2023-05-04T02:23:14.114Z,0.00
2023-05-04T02:24:13.561Z,0.00
2023-05-04T02:25:13.766Z,0.00
2023-05-04T02:26:13.370Z,0.00
2023-05-04T02:27:13.824Z,0.00
2023-05-04T02:28:13.780Z,0.00
2023-05-04T02:29:13.888Z,0.00
2023-05-04T02:30:13.770Z,0.00
2023-05-04T02:31:13.329Z,0.00
2023-05-04T02:32:13.373Z,0.00
2023-05-04T02:33:12.827Z,0.00
2023-05-04T02:34:13.474Z,0.00
2023-05-04T02:35:13.896Z,0.00
2023-05-04T02:36:13.198Z,0.00
2023-05-04T02:37:13.514Z,0.00
2023-05-04T02:38:13.558Z,0.00
2023-05-04T02:39:13.577Z,0.00
2023-05-04T02:40:13.749Z,0.00
2023-05-04T02:41:13.291Z,0.00
2023-05-04T02:42:13.350Z,0.00
2023-05-04T02:43:13.578Z,0.00
2023-05-04T02:44:13.224Z,0.00
2023-05-04T02:45:13.608Z,0.00
2023-05-04T02:46:13.957Z,0.00
2023-05-04T02:47:13.111Z,0.00
2023-05-04T02:48:13.379Z,0.00
2023-05-04T02:49:13.478Z,0.00
2023-05-04T02:50:13.415Z,0.00
2023-05-04T02:51:13.233Z,0.00
2023-05-04T02:52:13.869Z,0.00
2023-05-04T02:53:13.958Z,0.00
2023-05-04T02:54:13.148Z,0.00
2023-05-04T02:55:14.167Z,0.00
2023-05-04T02:56:13.440Z,0.00
2023-05-04T02:57:13.355Z,0.00
2023-05-04T02:58:13.029Z,0.00
2023-05-04T02:59:13.360Z,0.00
2023-05-04T03:00:13.410Z,0.00
2023-05-04T03:01:13.342Z,0.00
2023-05-04T03:02:13.902Z,0.00
2023-05-04T03:03:12.923Z,0.00
2023-05-04T03:04:13.222Z,0.00
2023-05-04T03:05:12.756Z,0.00
2023-05-04T03:06:15.156Z,0.00
2023-05-04T03:07:13.226Z,0.00
2023-05-04T03:08:13.838Z,0.00
2023-05-04T03:09:13.737Z,0.00
2023-05-04T03:10:13.705Z,0.00
2023-05-04T03:11:13.568Z,0.00
2023-05-04T03:12:13.645Z,0.00
2023-05-04T03:13:13.311Z,0.00
2023-05-04T03:14:13.562Z,0.00
2023-05-04T03:15:14.186Z,0.00
2023-05-04T03:16:13.388Z,0.00
2023-05-04T03:17:14.013Z,0.77
2023-05-04T03:18:13.134Z,0.77
2023-05-04T03:19:13.841Z,0.77
2023-05-04T03:20:14.128Z,0.77
2023-05-04T03:21:13.120Z,0.77
2023-05-04T03:22:13.211Z,0.77
2023-05-04T03:23:13.318Z,1.53
2023-05-04T03:24:13.520Z,1.53
2023-05-04T03:25:13.757Z,2.29
2023-05-04T03:26:13.842Z,2.29
2023-05-04T03:27:13.853Z,3.06
2023-05-04T03:28:14.123Z,3.82
2023-05-04T03:29:13.344Z,3.82
2023-05-04T03:30:13.133Z,5.35
2023-05-04T03:31:13.716Z,5.35
2023-05-04T03:32:13.802Z,6.88
2023-05-04T03:33:12.940Z,7.65
2023-05-04T03:34:13.843Z,9.18
2023-05-04T03:35:13.946Z,10.71
2023-05-04T03:36:12.824Z,12.24
2023-05-04T03:37:12.775Z,13.77
2023-05-04T03:38:13.486Z,15.30
2023-05-04T03:39:13.484Z,18.36
2023-05-04T03:40:13.482Z,19.89
2023-05-04T03:41:13.652Z,22.95
2023-05-04T03:42:14.974Z,27.54
2023-05-04T03:43:13.204Z,30.60
2023-05-04T03:44:13.723Z,36.72
2023-05-04T03:45:13.245Z,42.84
2023-05-04T03:46:13.810Z,48.96
2023-05-04T03:47:13.752Z,55.08
2023-05-04T03:48:13.667Z,61.20
2023-05-04T03:49:14.051Z,67.32
2023-05-04T03:50:13.297Z,79.56
2023-05-04T03:51:14.782Z,91.80
2023-05-04T03:52:13.047Z,97.92
2023-05-04T03:53:13.212Z,110.16
2023-05-04T03:54:13.284Z,122.40
2023-05-04T03:55:13.453Z,134.64
2023-05-04T03:56:13.696Z,134.64
2023-05-04T03:57:13.856Z,146.88
2023-05-04T03:58:13.789Z,159.12
2023-05-04T03:59:13.969Z,183.60
2023-05-04T04:00:13.067Z,195.84
2023-05-04T04:01:13.231Z,220.32
2023-05-04T04:02:13.412Z,220.32
2023-05-04T04:03:13.890Z,244.80
2023-05-04T04:04:13.055Z,244.80
2023-05-04T04:05:13.610Z,293.76
2023-05-04T04:06:13.752Z,318.24
2023-05-04T04:07:13.673Z,342.72
2023-05-04T04:08:13.677Z,367.20
2023-05-04T04:09:13.077Z,367.20
2023-05-04T04:10:13.218Z,391.68
2023-05-04T04:11:13.408Z,440.64
2023-05-04T04:12:13.705Z,440.64
2023-05-04T04:13:13.712Z,489.60
2023-05-04T04:14:13.725Z,489.60
2023-05-04T04:15:13.806Z,538.56
2023-05-04T04:16:14.125Z,538.56
2023-05-04T04:17:13.351Z,538.56
2023-05-04T04:18:13.449Z,587.52
2023-05-04T04:19:13.817Z,587.52
2023-05-04T04:20:13.669Z,685.44
2023-05-04T04:21:13.722Z,685.44
2023-05-04T04:22:14.111Z,734.40
2023-05-04T04:23:13.244Z,734.40
2023-05-04T04:24:12.974Z,783.36
2023-05-04T04:25:13.442Z,783.36
2023-05-04T04:26:13.467Z,783.36
2023-05-04T04:27:13.015Z,881.28
2023-05-04T04:28:49.164Z,881.28
2023-05-04T04:29:13.901Z,979.20
2023-05-04T04:30:13.181Z,1077.12
2023-05-04T04:31:13.187Z,1175.04
2023-05-04T04:32:13.101Z,1272.96
2023-05-04T04:33:13.137Z,1272.96
2023-05-04T04:34:13.241Z,1370.88
2023-05-04T04:35:14.043Z,1370.88
2023-05-04T04:36:12.953Z,1468.80
2023-05-04T04:37:13.178Z,1468.80
2023-05-04T04:38:13.681Z,1566.72
2023-05-04T04:39:14.114Z,1566.72
2023-05-04T04:40:13.390Z,1566.72
2023-05-04T04:41:12.859Z,1762.56
2023-05-04T04:42:13.594Z,1762.56
2023-05-04T04:43:13.619Z,1762.56
2023-05-04T04:44:13.656Z,1762.56
2023-05-04T04:45:13.873Z,1762.56
2023-05-04T04:46:13.172Z,1762.56
2023-05-04T04:47:13.196Z,1762.56
2023-05-04T04:48:14.083Z,1762.56
2023-05-04T04:49:13.212Z,1566.72
2023-05-04T04:50:13.390Z,1762.56
2023-05-04T04:51:13.756Z,1566.72
2023-05-04T04:52:13.273Z,1566.72
2023-05-04T04:53:13.468Z,1762.56
2023-05-04T04:54:13.413Z,1566.72
2023-05-04T04:55:13.708Z,1762.56
2023-05-04T04:56:13.165Z,1566.72
2023-05-04T04:57:13.194Z,1566.72
2023-05-04T04:58:13.177Z,1566.72
2023-05-04T04:59:13.220Z,1762.56
2023-05-04T05:00:13.509Z,1762.56
2023-05-04T05:02:35.233Z,1762.56
2023-05-04T05:03:13.582Z,1762.56
2023-05-04T05:04:14.070Z,1958.40
2023-05-04T05:05:13.800Z,1958.40
2023-05-04T05:06:13.311Z,1958.40
2023-05-04T05:07:13.553Z,1958.40
2023-05-04T05:08:13.535Z,1958.40
2023-05-04T05:09:13.454Z,1958.40
2023-05-04T05:10:13.767Z,1958.40
2023-05-04T05:11:14.017Z,2154.24
2023-05-04T05:12:18.038Z,2154.24
2023-05-04T05:13:18.155Z,2154.24
2023-05-04T05:14:13.463Z,2154.24
2023-05-04T05:15:13.723Z,2350.08
2023-05-04T05:16:13.767Z,2350.08
2023-05-04T05:17:13.413Z,2350.08
2023-05-04T05:18:13.294Z,2350.08
2023-05-04T05:19:13.184Z,2350.08
2023-05-04T05:20:13.969Z,2350.08
2023-05-04T05:21:13.260Z,2350.08
2023-05-04T05:22:13.593Z,2350.08
2023-05-04T05:23:13.944Z,2545.92
2023-05-04T05:24:13.209Z,2545.92
2023-05-04T05:25:13.549Z,2545.92
2023-05-04T05:26:13.506Z,2545.92
2023-05-04T05:27:13.697Z,2545.92
2023-05-04T05:28:13.114Z,2545.92
2023-05-04T05:29:13.093Z,2741.76
2023-05-04T05:30:13.227Z,2741.76
2023-05-04T05:31:13.286Z,2741.76
2023-05-04T05:32:13.335Z,2741.76
2023-05-04T05:33:13.449Z,2741.76
2023-05-04T05:34:13.286Z,2741.76
2023-05-04T05:35:13.948Z,2741.76
2023-05-04T05:36:13.088Z,2741.76
2023-05-04T05:37:13.366Z,2741.76
2023-05-04T05:38:13.173Z,2741.76
2023-05-04T05:39:13.108Z,2937.60
2023-05-04T05:40:13.085Z,2937.60
2023-05-04T05:41:13.209Z,2937.60
2023-05-04T05:42:13.860Z,3133.44
2023-05-04T05:43:14.059Z,3133.44
2023-05-04T05:44:13.262Z,3133.44
2023-05-04T05:45:13.114Z,3525.12
2023-05-04T05:46:13.220Z,3525.12
2023-05-04T05:47:13.668Z,3525.12
2023-05-04T05:48:13.750Z,3916.80
2023-05-04T05:49:13.562Z,3916.80
2023-05-04T05:50:13.521Z,3916.80
2023-05-04T05:51:13.444Z,3916.80
2023-05-04T05:52:14.037Z,4308.48
2023-05-04T05:53:13.376Z,4308.48
2023-05-04T05:54:13.621Z,4700.16
2023-05-04T05:55:14.817Z,4700.16
2023-05-04T05:56:14.052Z,4700.16
2023-05-04T05:57:13.458Z,4700.16
2023-05-04T05:58:13.726Z,5091.84
2023-05-04T05:59:14.376Z,5091.84
2023-05-04T06:00:13.664Z,5091.84
2023-05-04T06:01:13.474Z,5483.52
2023-05-04T06:02:15.011Z,5483.52
2023-05-04T06:03:13.222Z,5483.52
2023-05-04T06:04:14.308Z,5875.20
2023-05-04T06:05:14.344Z,5483.52
2023-05-04T06:06:13.369Z,5875.20
2023-05-04T06:07:14.048Z,5875.20
2023-05-04T06:08:13.319Z,5875.20
2023-05-04T06:09:13.513Z,5875.20
2023-05-04T06:10:13.125Z,6266.88
2023-05-04T06:11:13.000Z,6266.88
2023-05-04T06:12:13.219Z,6266.88
2023-05-04T06:13:13.694Z,6266.88
2023-05-04T06:14:13.777Z,6266.88
2023-05-04T06:15:14.089Z,7050.24
2023-05-04T06:16:13.040Z,7050.24
2023-05-04T06:17:12.940Z,7050.24
2023-05-04T06:18:13.548Z,7050.24
2023-05-04T06:19:13.777Z,7050.24
2023-05-04T06:20:13.863Z,7050.24
2023-05-04T06:21:13.507Z,7050.24
2023-05-04T06:22:13.527Z,7833.60
2023-05-04T06:23:13.654Z,7833.60
2023-05-04T06:24:13.752Z,7833.60
2023-05-04T06:25:13.453Z,7833.60
2023-05-04T06:26:13.324Z,7833.60
2023-05-04T06:27:13.140Z,7833.60
2023-05-04T06:28:13.282Z,7050.24
2023-05-04T06:29:14.041Z,7833.60
2023-05-04T06:30:13.231Z,7833.60
2023-05-04T06:31:13.679Z,7833.60
2023-05-04T06:32:12.894Z,7833.60
2023-05-04T06:33:13.327Z,7833.60
2023-05-04T06:34:13.650Z,7833.60
2023-05-04T06:35:13.202Z,7833.60
2023-05-04T06:36:13.312Z,7833.60
2023-05-04T06:37:14.849Z,7833.60
2023-05-04T06:38:13.070Z,7833.60
2023-05-04T06:39:13.928Z,7833.60
2023-05-04T06:40:13.536Z,7833.60
2023-05-04T06:41:13.747Z,7833.60
2023-05-04T06:42:12.956Z,7833.60
2023-05-04T06:43:13.113Z,7833.60
2023-05-04T06:44:13.270Z,7833.60
2023-05-04T06:45:13.647Z,7050.24
2023-05-04T06:46:13.775Z,7050.24
2023-05-04T06:47:13.808Z,7833.60
2023-05-04T06:48:13.762Z,7833.60
2023-05-04T06:49:12.770Z,7050.24
2023-05-04T06:50:13.297Z,7050.24
2023-05-04T06:51:13.468Z,7050.24
2023-05-04T06:52:13.380Z,7050.24
2023-05-04T06:53:13.750Z,7050.24
2023-05-04T06:54:13.666Z,6266.88
2023-05-04T06:55:13.966Z,6266.88
2023-05-04T06:56:13.098Z,6266.88
2023-05-04T06:57:13.560Z,7050.24
2023-05-04T06:58:13.468Z,6266.88
2023-05-04T06:59:13.413Z,6266.88
2023-05-04T07:00:13.501Z,6266.88
2023-05-04T07:01:14.888Z,6266.88
2023-05-04T07:02:13.434Z,6266.88
2023-05-04T07:03:13.828Z,6266.88
2023-05-04T07:04:13.043Z,6266.88
2023-05-04T07:05:13.294Z,6266.88
2023-05-04T07:06:13.240Z,6266.88
2023-05-04T07:07:13.630Z,6266.88
2023-05-04T07:08:13.739Z,6266.88
2023-05-04T07:09:13.690Z,6266.88
2023-05-04T07:10:13.837Z,6266.88
2023-05-04T07:11:14.071Z,6266.88
2023-05-04T07:12:13.114Z,6266.88
2023-05-04T07:13:13.292Z,6266.88
2023-05-04T07:14:13.220Z,6266.88
2023-05-04T07:15:13.059Z,6266.88
2023-05-04T07:16:13.631Z,6266.88
2023-05-04T07:17:13.639Z,6266.88
2023-05-04T07:18:13.862Z,6266.88
2023-05-04T07:19:12.855Z,6266.88
2023-05-04T07:20:13.057Z,6266.88
2023-05-04T07:21:26.986Z,7050.24
2023-05-04T07:22:13.140Z,7050.24
2023-05-04T07:23:13.366Z,7050.24
2023-05-04T07:24:13.653Z,7050.24
2023-05-04T07:25:13.673Z,7050.24
2023-05-04T07:26:13.806Z,7050.24
2023-05-04T07:27:14.585Z,7050.24
2023-05-04T07:28:13.817Z,7050.24
2023-05-04T07:29:14.224Z,7050.24
2023-05-04T07:30:13.196Z,7050.24
2023-05-04T07:31:14.056Z,7050.24
2023-05-04T07:32:13.565Z,7050.24
2023-05-04T07:33:13.692Z,7050.24
2023-05-04T07:34:13.817Z,7050.24
2023-05-04T07:35:13.929Z,7050.24
2023-05-04T07:36:12.967Z,7050.24
2023-05-04T07:37:12.954Z,7833.60
2023-05-04T07:38:12.888Z,7833.60
2023-05-04T07:39:13.585Z,7833.60
2023-05-04T07:40:13.537Z,7833.60
2023-05-04T07:41:13.724Z,7833.60
2023-05-04T07:42:13.779Z,7833.60
2023-05-04T07:43:14.084Z,7833.60
2023-05-04T07:44:13.141Z,8616.96
2023-05-04T07:45:13.064Z,7833.60
2023-05-04T07:46:13.216Z,7833.60
2023-05-04T07:47:13.655Z,8616.96
2023-05-04T07:48:13.853Z,8616.96
2023-05-04T07:49:13.781Z,7833.60
2023-05-04T07:50:13.614Z,7833.60
2023-05-04T07:51:13.704Z,7833.60
2023-05-04T07:52:14.165Z,8616.96
2023-05-04T07:53:13.374Z,7833.60
2023-05-04T07:54:19.720Z,8616.96
2023-05-04T07:55:13.757Z,8616.96
2023-05-04T07:56:13.885Z,8616.96
2023-05-04T07:57:13.511Z,9400.32
2023-05-04T07:58:13.095Z,8616.96
2023-05-04T07:59:13.187Z,9400.32
2023-05-04T08:00:13.656Z,8616.96
2023-05-04T08:01:13.031Z,9400.32
2023-05-04T08:02:13.101Z,9400.32
2023-05-04T08:03:13.299Z,9400.32
2023-05-04T08:04:13.457Z,9400.32
2023-05-04T08:05:13.723Z,9400.32
2023-05-04T08:06:13.842Z,9400.32
2023-05-04T08:07:14.127Z,9400.32
2023-05-04T08:08:13.022Z,9400.32
2023-05-04T08:09:13.157Z,9400.32
2023-05-04T08:10:13.123Z,9400.32
2023-05-04T08:11:20.112Z,9400.32
2023-05-04T08:12:12.941Z,8616.96
2023-05-04T08:13:13.295Z,8616.96
2023-05-04T08:14:13.361Z,9400.32
2023-05-04T08:15:13.762Z,8616.96
2023-05-04T08:16:13.645Z,8616.96
2023-05-04T08:17:13.834Z,8616.96
2023-05-04T08:18:13.017Z,8616.96
2023-05-04T08:19:13.527Z,8616.96
2023-05-04T08:20:13.554Z,8616.96
2023-05-04T08:21:13.574Z,9400.32
2023-05-04T08:22:13.797Z,9400.32
2023-05-04T08:23:13.809Z,8616.96
2023-05-04T08:24:13.980Z,9400.32
2023-05-04T08:25:12.998Z,9400.32
2023-05-04T08:26:13.588Z,10183.68
2023-05-04T08:27:13.492Z,10183.68
2023-05-04T08:28:13.471Z,10183.68
2023-05-04T08:29:13.602Z,10183.68
2023-05-04T08:30:13.223Z,10967.04
2023-05-04T08:31:13.748Z,10967.04
2023-05-04T08:32:13.308Z,10967.04
2023-05-04T08:33:13.447Z,10967.04
2023-05-04T08:34:13.624Z,11750.40
2023-05-04T08:35:13.814Z,11750.40
2023-05-04T08:36:13.409Z,11750.40
2023-05-04T08:37:13.930Z,11750.40
2023-05-04T08:38:13.125Z,11750.40
2023-05-04T08:39:13.641Z,11750.40
2023-05-04T08:40:13.225Z,11750.40
2023-05-04T08:41:13.345Z,12533.76
2023-05-04T08:42:13.247Z,12533.76
2023-05-04T08:43:13.478Z,12533.76
2023-05-04T08:44:13.804Z,12533.76
2023-05-04T08:45:13.829Z,11750.40
2023-05-04T08:46:14.056Z,12533.76
2023-05-04T08:47:14.195Z,11750.40
2023-05-04T08:48:13.597Z,11750.40
2023-05-04T08:49:13.834Z,12533.76
2023-05-04T08:50:13.701Z,12533.76
2023-05-04T08:51:13.864Z,12533.76
2023-05-04T08:52:13.917Z,12533.76
2023-05-04T08:53:13.010Z,12533.76
2023-05-04T08:54:13.769Z,12533.76
2023-05-04T08:55:13.444Z,12533.76
2023-05-04T08:56:13.611Z,12533.76
2023-05-04T08:57:12.789Z,12533.76
2023-05-04T08:58:13.789Z,12533.76
2023-05-04T08:59:13.781Z,12533.76
2023-05-04T09:00:13.815Z,14100.48
2023-05-04T09:01:13.945Z,14100.48
2023-05-04T09:02:13.046Z,17233.92
2023-05-04T09:03:13.055Z,25067.52
2023-05-04T09:04:13.748Z,28200.96
2023-05-04T09:05:13.153Z,28200.96
2023-05-04T09:06:13.256Z,25067.52
2023-05-04T09:07:13.353Z,28200.96
2023-05-04T09:08:13.276Z,28200.96
2023-05-04T09:09:13.535Z,31334.40
2023-05-04T09:10:13.651Z,34467.84
2023-05-04T09:11:13.842Z,31334.40
2023-05-04T09:12:12.938Z,31334.40
2023-05-04T09:13:12.869Z,34467.84
2023-05-04T09:14:18.295Z,34467.84
2023-05-04T09:15:13.276Z,34467.84
2023-05-04T09:16:14.751Z,34467.84
2023-05-04T09:17:13.132Z,34467.84
2023-05-04T09:18:13.412Z,34467.84
2023-05-04T09:19:13.774Z,37601.28
2023-05-04T09:20:13.915Z,43868.16
2023-05-04T09:21:13.008Z,43868.16
2023-05-04T09:22:13.814Z,43868.16
2023-05-04T09:23:13.531Z,40734.72
2023-05-04T09:24:13.713Z,40734.72
2023-05-04T09:25:13.783Z,40734.72
2023-05-04T09:26:13.798Z,40734.72
2023-05-04T09:27:13.822Z,34467.84
2023-05-04T09:28:13.921Z,34467.84
2023-05-04T09:29:12.902Z,37601.28
2023-05-04T09:30:13.375Z,40734.72
2023-05-04T09:31:13.641Z,37601.28
2023-05-04T09:32:13.841Z,31334.40
2023-05-04T09:33:13.470Z,37601.28
2023-05-04T09:34:13.278Z,34467.84
2023-05-04T09:35:25.307Z,31334.40
2023-05-04T09:36:13.282Z,34467.84
2023-05-04T09:37:13.216Z,34467.84
2023-05-04T09:38:13.000Z,34467.84
2023-05-04T09:39:12.969Z,37601.28
2023-05-04T09:40:13.482Z,37601.28
2023-05-04T09:41:13.631Z,40734.72
2023-05-04T09:42:13.699Z,40734.72
2023-05-04T09:43:13.946Z,40734.72
2023-05-04T09:44:13.059Z,40734.72
2023-05-04T09:45:12.996Z,40734.72
2023-05-04T09:46:13.130Z,40734.72
2023-05-04T09:47:13.361Z,37601.28
2023-05-04T09:48:13.285Z,40734.72
2023-05-04T09:49:13.240Z,47001.60
2023-05-04T09:50:13.528Z,47001.60
2023-05-04T09:51:13.958Z,47001.60
2023-05-04T09:52:13.016Z,47001.60
2023-05-04T09:53:13.334Z,43868.16
2023-05-04T09:54:13.235Z,43868.16
2023-05-04T09:55:13.254Z,43868.16
2023-05-04T09:56:13.384Z,43868.16
2023-05-04T09:57:13.414Z,37601.28
2023-05-04T09:58:13.742Z,43868.16
2023-05-04T09:59:13.780Z,47001.60
2023-05-04T10:00:13.840Z,43868.16
2023-05-04T10:01:18.749Z,47001.60
2023-05-04T10:02:22.659Z,50135.04
2023-05-04T10:03:13.413Z,47001.60
2023-05-04T10:04:13.383Z,47001.60
2023-05-04T10:05:13.576Z,47001.60
2023-05-04T10:06:13.651Z,50135.04
2023-05-04T10:07:51.548Z,50135.04
2023-05-04T10:08:13.922Z,47001.60
2023-05-04T10:09:13.304Z,47001.60
2023-05-04T10:10:13.408Z,47001.60
2023-05-04T10:11:13.514Z,47001.60
2023-05-04T10:12:13.540Z,47001.60
2023-05-04T10:13:13.576Z,47001.60
2023-05-04T10:14:13.470Z,47001.60
2023-05-04T10:15:25.485Z,47001.60
2023-05-04T10:16:34.042Z,47001.60
2023-05-04T10:17:13.910Z,47001.60
2023-05-04T10:18:13.393Z,47001.60
2023-05-04T10:19:13.212Z,47001.60
2023-05-04T10:20:13.940Z,43868.16
2023-05-04T10:21:25.810Z,47001.60
2023-05-04T10:22:13.807Z,47001.60
2023-05-04T10:23:14.137Z,47001.60
2023-05-04T10:24:13.118Z,43868.16
2023-05-04T10:25:13.429Z,43868.16
2023-05-04T10:26:13.104Z,43868.16
2023-05-04T10:27:13.513Z,43868.16
2023-05-04T10:28:13.805Z,47001.60
2023-05-04T10:29:49.137Z,50135.04
2023-05-04T10:30:13.991Z,50135.04
2023-05-04T10:31:13.314Z,47001.60
2023-05-04T10:32:13.471Z,47001.60
2023-05-04T10:33:12.942Z,47001.60
2023-05-04T10:34:13.376Z,47001.60
2023-05-04T10:35:13.421Z,47001.60
2023-05-04T10:36:13.485Z,43868.16
2023-05-04T10:37:13.853Z,47001.60
2023-05-04T10:38:13.986Z,43868.16
2023-05-04T10:39:13.110Z,43868.16
2023-05-04T10:40:13.655Z,47001.60
2023-05-04T10:41:13.015Z,47001.60
2023-05-04T10:42:13.027Z,50135.04
2023-05-04T10:43:13.478Z,50135.04
2023-05-04T10:44:13.365Z,47001.60
2023-05-04T10:45:13.641Z,47001.60
2023-05-04T10:46:13.729Z,47001.60
2023-05-04T10:47:13.802Z,47001.60
2023-05-04T10:48:13.189Z,47001.60
2023-05-04T10:49:14.676Z,47001.60
2023-05-04T10:50:13.673Z,47001.60
2023-05-04T10:51:13.317Z,50135.04
2023-05-04T10:52:13.821Z,50135.04
2023-05-04T10:53:13.843Z,47001.60
2023-05-04T10:54:13.887Z,43868.16
2023-05-04T10:55:13.924Z,47001.60
2023-05-04T10:56:12.736Z,47001.60
2023-05-04T10:57:13.838Z,47001.60
2023-05-04T10:58:13.210Z,50135.04
2023-05-04T10:59:13.427Z,50135.04
2023-05-04T11:00:13.768Z,50135.04
2023-05-04T11:01:13.960Z,47001.60
2023-05-04T11:02:14.263Z,47001.60
2023-05-04T11:03:13.448Z,47001.60
2023-05-04T11:04:13.591Z,40734.72
2023-05-04T11:05:12.893Z,50135.04
2023-05-04T11:06:13.366Z,50135.04
2023-05-04T11:07:13.448Z,50135.04
2023-05-04T11:08:13.481Z,50135.04
2023-05-04T11:09:13.508Z,50135.04
2023-05-04T11:10:13.827Z,50135.04
2023-05-04T11:11:13.738Z,50135.04
2023-05-04T11:12:13.723Z,50135.04
2023-05-04T11:13:13.291Z,50135.04
2023-05-04T11:14:13.709Z,50135.04
2023-05-04T11:15:13.774Z,50135.04
2023-05-04T11:16:13.290Z,50135.04
2023-05-04T11:17:27.345Z,50135.04
2023-05-04T11:18:13.148Z,47001.60
2023-05-04T11:19:13.755Z,50135.04
2023-05-04T11:20:14.600Z,50135.04
2023-05-04T11:21:13.548Z,47001.60
2023-05-04T11:22:13.400Z,50135.04
2023-05-04T11:23:14.995Z,47001.60
2023-05-04T11:24:13.799Z,50135.04
2023-05-04T11:25:14.116Z,50135.04
2023-05-04T11:26:13.461Z,47001.60
2023-05-04T11:27:13.883Z,43868.16
2023-05-04T11:28:14.663Z,43868.16
2023-05-04T11:29:13.015Z,47001.60
2023-05-04T11:30:13.114Z,50135.04
2023-05-04T11:31:13.448Z,50135.04
2023-05-04T11:32:13.696Z,47001.60
2023-05-04T11:33:14.012Z,43868.16
2023-05-04T11:34:13.679Z,40734.72
2023-05-04T11:35:13.863Z,37601.28
2023-05-04T11:36:14.066Z,37601.28
2023-05-04T11:37:14.225Z,40734.72
2023-05-04T11:38:13.334Z,47001.60
2023-05-04T11:39:13.520Z,47001.60
2023-05-04T11:40:13.742Z,40734.72
2023-05-04T11:41:13.723Z,47001.60
2023-05-04T11:42:14.424Z,47001.60
2023-05-04T11:43:13.544Z,50135.04
2023-05-04T11:44:13.978Z,50135.04
2023-05-04T11:45:13.639Z,50135.04
2023-05-04T11:46:13.724Z,50135.04
2023-05-04T11:47:15.537Z,50135.04
2023-05-04T11:48:13.452Z,50135.04
2023-05-04T11:49:13.873Z,50135.04
2023-05-04T11:50:13.908Z,50135.04
2023-05-04T11:51:13.029Z,50135.04
2023-05-04T11:52:13.247Z,47001.60
2023-05-04T11:53:13.224Z,50135.04
2023-05-04T11:54:13.133Z,50135.04
2023-05-04T11:55:13.439Z,50135.04
2023-05-04T11:56:13.763Z,50135.04
2023-05-04T11:57:21.272Z,50135.04
2023-05-04T11:58:13.293Z,50135.04
2023-05-04T11:59:13.652Z,50135.04
2023-05-04T12:00:13.995Z,50135.04
2023-05-04T12:01:13.025Z,50135.04
2023-05-04T12:02:13.123Z,50135.04
2023-05-04T12:03:13.744Z,56401.92
2023-05-04T12:04:13.932Z,50135.04
2023-05-04T12:05:12.967Z,50135.04
2023-05-04T12:06:13.808Z,50135.04
2023-05-04T12:07:13.446Z,50135.04
2023-05-04T12:08:13.516Z,50135.04
2023-05-04T12:09:12.840Z,50135.04
2023-05-04T12:10:13.725Z,50135.04
2023-05-04T12:11:14.019Z,47001.60
2023-05-04T12:12:13.121Z,47001.60
2023-05-04T12:13:13.650Z,50135.04
2023-05-04T12:14:13.099Z,50135.04
2023-05-04T12:15:14.092Z,50135.04
2023-05-04T12:16:13.460Z,50135.04
2023-05-04T12:17:13.425Z,50135.04
2023-05-04T12:18:13.626Z,50135.04
2023-05-04T12:19:13.596Z,50135.04
2023-05-04T12:20:13.452Z,47001.60
2023-05-04T12:21:13.848Z,50135.04